createdAt,value
2023-01-30T00:00:02.376Z,512.00
2023-01-30T00:01:02.325Z,518.00
2023-01-30T00:02:02.399Z,515.00
2023-01-30T00:03:02.330Z,514.00
2023-01-30T00:04:02.312Z,510.00
2023-01-30T00:05:02.355Z,515.00
2023-01-30T00:06:02.326Z,514.00
2023-01-30T00:07:02.326Z,516.00
2023-01-30T00:08:02.294Z,523.00
2023-01-30T00:09:02.285Z,522.00
2023-01-30T00:10:02.289Z,517.00
2023-01-30T00:11:02.289Z,524.00
2023-01-30T00:12:02.293Z,529.00
2023-01-30T00:13:02.325Z,536.00
2023-01-30T00:14:02.344Z,536.00
2023-01-30T00:15:02.347Z,542.00
2023-01-30T00:16:02.371Z,545.00
2023-01-30T00:17:02.377Z,562.00
2023-01-30T00:18:02.441Z,584.00
2023-01-30T00:19:02.460Z,560.00
2023-01-30T00:20:02.560Z,568.00
2023-01-30T00:21:02.616Z,570.00
2023-01-30T00:22:02.655Z,568.00
2023-01-30T00:23:02.692Z,576.00
2023-01-30T00:24:02.745Z,560.00
2023-01-30T00:25:02.876Z,567.00
2023-01-30T00:26:02.864Z,573.00
2023-01-30T00:27:02.941Z,574.00
2023-01-30T00:28:03.019Z,576.00
2023-01-30T00:29:03.046Z,565.00
2023-01-30T00:30:03.772Z,564.00
2023-01-30T00:31:03.308Z,572.00
2023-01-30T00:32:03.546Z,569.00
2023-01-30T00:33:03.467Z,566.00
2023-01-30T00:34:03.224Z,568.00
2023-01-30T00:35:03.276Z,568.00
2023-01-30T00:36:03.312Z,564.00
2023-01-30T00:37:08.390Z,570.00
2023-01-30T00:38:04.355Z,570.00
2023-01-30T00:39:03.331Z,571.00
2023-01-30T00:40:03.335Z,571.00
2023-01-30T00:41:03.329Z,571.00
2023-01-30T00:42:03.353Z,577.00
2023-01-30T00:43:03.324Z,572.00
2023-01-30T00:44:03.279Z,580.00
2023-01-30T00:45:03.299Z,583.00
2023-01-30T00:46:03.581Z,576.00
2023-01-30T00:47:03.282Z,576.00
2023-01-30T00:48:03.249Z,576.00
2023-01-30T00:49:03.258Z,580.00
2023-01-30T00:50:03.243Z,584.00
2023-01-30T00:51:03.254Z,584.00
2023-01-30T00:52:03.250Z,580.00
2023-01-30T00:53:03.217Z,583.00
2023-01-30T00:54:03.261Z,580.00
2023-01-30T00:55:03.259Z,575.00
2023-01-30T00:56:03.307Z,578.00
2023-01-30T00:57:03.333Z,577.00
2023-01-30T00:58:03.361Z,578.00
2023-01-30T00:59:03.379Z,588.00
2023-01-30T01:00:03.407Z,578.00
2023-01-30T01:01:03.411Z,584.00
2023-01-30T01:02:03.552Z,580.00
2023-01-30T01:03:03.465Z,581.00
2023-01-30T01:04:03.471Z,586.00
2023-01-30T01:05:03.458Z,586.00
2023-01-30T01:06:03.487Z,589.00
2023-01-30T01:07:03.504Z,588.00
2023-01-30T01:08:03.562Z,589.00
2023-01-30T01:09:03.552Z,584.00
2023-01-30T01:10:03.563Z,576.00
2023-01-30T01:11:03.558Z,582.00
2023-01-30T01:12:03.557Z,581.00
2023-01-30T01:13:03.559Z,583.00
2023-01-30T01:14:03.572Z,581.00
2023-01-30T01:15:03.608Z,587.00
2023-01-30T01:16:03.652Z,580.00
2023-01-30T01:17:03.612Z,591.00
2023-01-30T01:18:03.636Z,582.00
2023-01-30T01:19:03.636Z,580.00
2023-01-30T01:20:03.675Z,583.00
2023-01-30T01:21:03.648Z,576.00
2023-01-30T01:22:03.665Z,578.00
2023-01-30T01:23:03.706Z,580.00
2023-01-30T01:24:03.622Z,584.00
2023-01-30T01:25:03.650Z,582.00
2023-01-30T01:26:03.631Z,581.00
2023-01-30T01:27:03.642Z,584.00
2023-01-30T01:28:03.656Z,578.00
2023-01-30T01:29:03.681Z,579.00
2023-01-30T01:30:03.671Z,580.00
2023-01-30T01:31:03.671Z,581.00
2023-01-30T01:32:03.714Z,576.00
2023-01-30T01:33:03.652Z,577.00
2023-01-30T01:34:03.635Z,581.00
2023-01-30T01:35:03.638Z,576.00
2023-01-30T01:36:04.720Z,580.00
2023-01-30T01:37:03.687Z,585.00
2023-01-30T01:38:03.613Z,579.00
2023-01-30T01:39:03.654Z,586.00
2023-01-30T01:40:03.642Z,582.00
2023-01-30T01:41:03.664Z,581.00
2023-01-30T01:42:03.602Z,579.00
2023-01-30T01:43:03.628Z,581.00
2023-01-30T01:44:03.604Z,579.00
2023-01-30T01:45:03.600Z,582.00
2023-01-30T01:46:03.667Z,578.00
2023-01-30T01:47:03.684Z,577.00
2023-01-30T01:48:03.604Z,577.00
2023-01-30T01:49:03.626Z,573.00
2023-01-30T01:50:03.636Z,575.00
2023-01-30T01:51:03.606Z,578.00
2023-01-30T01:52:03.629Z,574.00
2023-01-30T01:53:03.647Z,577.00
2023-01-30T01:54:03.633Z,582.00
2023-01-30T01:55:03.675Z,576.00
2023-01-30T01:56:03.692Z,577.00
2023-01-30T01:57:03.689Z,573.00
2023-01-30T01:58:03.693Z,576.00
2023-01-30T01:59:03.684Z,576.00
2023-01-30T02:00:03.740Z,572.00
2023-01-30T02:01:03.820Z,575.00
2023-01-30T02:02:03.836Z,580.00
2023-01-30T02:03:03.744Z,577.00
2023-01-30T02:04:03.798Z,576.00
2023-01-30T02:05:03.812Z,577.00
2023-01-30T02:06:03.885Z,575.00
2023-01-30T02:07:03.922Z,576.00
2023-01-30T02:08:03.913Z,574.00
2023-01-30T02:09:03.961Z,576.00
2023-01-30T02:10:04.003Z,572.00
2023-01-30T02:11:04.039Z,573.00
2023-01-30T02:12:04.084Z,575.00
2023-01-30T02:13:04.132Z,574.00
2023-01-30T02:14:04.183Z,570.00
2023-01-30T02:15:04.219Z,572.00
2023-01-30T02:16:04.217Z,574.00
2023-01-30T02:17:04.225Z,576.00
2023-01-30T02:18:04.275Z,571.00
2023-01-30T02:19:04.284Z,572.00
2023-01-30T02:20:04.317Z,569.00
2023-01-30T02:21:04.379Z,566.00
2023-01-30T02:22:04.437Z,569.00
2023-01-30T02:23:04.485Z,566.00
2023-01-30T02:24:04.512Z,570.00
2023-01-30T02:25:04.594Z,570.00
2023-01-30T02:26:04.766Z,572.00
2023-01-30T02:27:04.715Z,568.00
2023-01-30T02:28:04.792Z,570.00
2023-01-30T02:29:04.851Z,576.00
2023-01-30T02:30:04.918Z,569.00
2023-01-30T02:31:05.116Z,572.00
2023-01-30T02:32:05.080Z,575.00
2023-01-30T02:33:05.083Z,570.00
2023-01-30T02:34:05.164Z,563.00
2023-01-30T02:35:05.199Z,571.00
2023-01-30T02:36:05.272Z,565.00
2023-01-30T02:37:05.343Z,568.00
2023-01-30T02:38:05.396Z,571.00
2023-01-30T02:39:05.476Z,575.00
2023-01-30T02:40:05.525Z,571.00
2023-01-30T02:41:05.590Z,568.00
2023-01-30T02:42:05.662Z,574.00
2023-01-30T02:43:05.689Z,570.00
2023-01-30T02:44:05.757Z,573.00
2023-01-30T02:45:05.849Z,570.00
2023-01-30T02:46:05.920Z,566.00
2023-01-30T02:47:05.942Z,566.00
2023-01-30T02:48:05.999Z,573.00
2023-01-30T02:49:06.079Z,565.00
2023-01-30T02:50:06.119Z,566.00
2023-01-30T02:51:06.197Z,565.00
2023-01-30T02:52:06.285Z,561.00
2023-01-30T02:53:06.314Z,570.00
2023-01-30T02:54:06.374Z,558.00
2023-01-30T02:55:06.429Z,567.00
2023-01-30T02:56:06.502Z,565.00
2023-01-30T02:57:06.576Z,562.00
2023-01-30T02:58:06.633Z,564.00
2023-01-30T02:59:06.698Z,558.00
2023-01-30T03:00:06.742Z,568.00
2023-01-30T03:01:06.813Z,565.00
2023-01-30T03:02:06.912Z,569.00
2023-01-30T03:03:06.938Z,570.00
2023-01-30T03:04:06.960Z,566.00
2023-01-30T03:05:07.051Z,566.00
2023-01-30T03:06:07.084Z,567.00
2023-01-30T03:07:07.138Z,560.00
2023-01-30T03:08:07.221Z,560.00
2023-01-30T03:09:07.255Z,566.00
2023-01-30T03:10:07.323Z,567.00
2023-01-30T03:11:07.343Z,567.00
2023-01-30T03:12:07.414Z,559.00
2023-01-30T03:13:07.482Z,556.00
2023-01-30T03:14:07.531Z,566.00
2023-01-30T03:15:07.592Z,566.00
2023-01-30T03:17:07.704Z,556.00
2023-01-30T03:18:07.722Z,566.00
2023-01-30T03:19:07.791Z,563.00
2023-01-30T03:20:07.816Z,555.00
2023-01-30T03:21:07.877Z,560.00
2023-01-30T03:22:07.960Z,561.00
2023-01-30T03:23:08.006Z,560.00
2023-01-30T03:24:08.027Z,563.00
2023-01-30T03:25:08.101Z,560.00
2023-01-30T03:26:08.135Z,559.00
2023-01-30T03:27:08.177Z,558.00
2023-01-30T03:28:08.275Z,564.00
2023-01-30T03:29:08.292Z,558.00
2023-01-30T03:30:08.335Z,561.00
2023-01-30T03:31:08.443Z,558.00
2023-01-30T03:32:08.447Z,562.00
2023-01-30T03:33:08.490Z,553.00
2023-01-30T03:34:08.574Z,559.00
2023-01-30T03:35:08.602Z,562.00
2023-01-30T03:36:08.691Z,563.00
2023-01-30T03:37:08.684Z,561.00
2023-01-30T03:38:08.781Z,561.00
2023-01-30T03:39:08.801Z,554.00
2023-01-30T03:40:08.865Z,558.00
2023-01-30T03:41:08.891Z,559.00
2023-01-30T03:42:08.982Z,560.00
2023-01-30T03:43:08.995Z,559.00
2023-01-30T03:44:09.045Z,554.00
2023-01-30T03:45:09.113Z,554.00
2023-01-30T03:46:09.149Z,556.00
2023-01-30T03:47:09.193Z,553.00
2023-01-30T03:48:09.221Z,560.00
2023-01-30T03:49:09.284Z,558.00
2023-01-30T03:50:09.328Z,557.00
2023-01-30T03:51:09.359Z,556.00
2023-01-30T03:52:09.413Z,551.00
2023-01-30T03:53:09.456Z,553.00
2023-01-30T03:54:09.471Z,557.00
2023-01-30T03:55:09.531Z,559.00
2023-01-30T03:56:09.600Z,553.00
2023-01-30T03:57:09.614Z,553.00
2023-01-30T03:58:09.644Z,555.00
2023-01-30T03:59:09.685Z,554.00
2023-01-30T04:00:09.735Z,558.00
2023-01-30T04:01:09.861Z,551.00
2023-01-30T04:02:09.880Z,546.00
2023-01-30T04:03:09.848Z,555.00
2023-01-30T04:04:09.916Z,554.00
2023-01-30T04:05:09.939Z,556.00
2023-01-30T04:06:10.004Z,557.00
2023-01-30T04:07:10.018Z,556.00
2023-01-30T04:08:10.088Z,551.00
2023-01-30T04:09:10.145Z,555.00
2023-01-30T04:10:10.154Z,555.00
2023-01-30T04:11:10.220Z,557.00
2023-01-30T04:12:10.235Z,557.00
2023-01-30T04:13:10.266Z,554.00
2023-01-30T04:14:10.332Z,553.00
2023-01-30T04:15:10.336Z,557.00
2023-01-30T04:16:10.391Z,554.00
2023-01-30T04:17:10.451Z,551.00
2023-01-30T04:18:10.486Z,550.00
2023-01-30T04:19:10.526Z,552.00
2023-01-30T04:20:10.615Z,547.00
2023-01-30T04:21:10.581Z,549.00
2023-01-30T04:22:10.640Z,550.00
2023-01-30T04:23:10.689Z,558.00
2023-01-30T04:24:10.687Z,553.00
2023-01-30T04:25:10.728Z,552.00
2023-01-30T04:26:10.770Z,549.00
2023-01-30T04:27:10.798Z,554.00
2023-01-30T04:28:10.863Z,551.00
2023-01-30T04:29:10.892Z,550.00
2023-01-30T04:30:10.928Z,556.00
2023-01-30T04:31:10.995Z,560.00
2023-01-30T04:32:11.026Z,548.00
2023-01-30T04:33:11.049Z,553.00
2023-01-30T04:34:11.086Z,553.00
2023-01-30T04:35:11.142Z,553.00
2023-01-30T04:36:11.263Z,555.00
2023-01-30T04:37:11.213Z,557.00
2023-01-30T04:38:11.219Z,551.00
2023-01-30T04:39:11.310Z,550.00
2023-01-30T04:40:11.333Z,551.00
2023-01-30T04:41:11.387Z,551.00
2023-01-30T04:42:11.419Z,547.00
2023-01-30T04:43:11.451Z,549.00
2023-01-30T04:44:11.498Z,557.00
2023-01-30T04:45:11.552Z,548.00
2023-01-30T04:46:11.607Z,558.00
2023-01-30T04:47:11.706Z,543.00
2023-01-30T04:48:11.695Z,554.00
2023-01-30T04:49:11.773Z,551.00
2023-01-30T04:50:11.813Z,547.00
2023-01-30T04:51:11.858Z,552.00
2023-01-30T04:52:11.921Z,551.00
2023-01-30T04:53:11.975Z,557.00
2023-01-30T04:54:12.011Z,548.00
2023-01-30T04:55:12.070Z,554.00
2023-01-30T04:56:12.135Z,549.00
2023-01-30T04:57:12.195Z,549.00
2023-01-30T04:58:12.220Z,551.00
2023-01-30T04:59:12.251Z,550.00
2023-01-30T05:00:12.325Z,550.00
2023-01-30T05:01:12.395Z,553.00
2023-01-30T05:02:12.513Z,554.00
2023-01-30T05:03:12.469Z,549.00
2023-01-30T05:04:12.557Z,557.00
2023-01-30T05:05:12.593Z,564.00
2023-01-30T05:06:12.628Z,552.00
2023-01-30T05:07:12.708Z,548.00
2023-01-30T05:08:12.785Z,558.00
2023-01-30T05:09:12.845Z,560.00
2023-01-30T05:10:12.918Z,551.00
2023-01-30T05:11:12.944Z,546.00
2023-01-30T05:12:13.041Z,553.00
2023-01-30T05:13:13.101Z,550.00
2023-01-30T05:14:13.133Z,553.00
2023-01-30T05:15:13.206Z,551.00
2023-01-30T05:16:13.285Z,553.00
2023-01-30T05:17:13.398Z,547.00
2023-01-30T05:18:13.410Z,551.00
2023-01-30T05:19:13.447Z,554.00
2023-01-30T05:20:13.545Z,554.00
2023-01-30T05:21:13.571Z,558.00
2023-01-30T05:22:13.617Z,550.00
2023-01-30T05:23:13.683Z,556.00
2023-01-30T05:24:13.767Z,560.00
2023-01-30T05:25:13.798Z,552.00
2023-01-30T05:26:13.955Z,552.00
2023-01-30T05:27:13.916Z,545.00
2023-01-30T05:28:14.006Z,537.00
2023-01-30T05:29:14.046Z,543.00
2023-01-30T05:30:14.145Z,547.00
2023-01-30T05:31:14.254Z,551.00
2023-01-30T05:32:14.257Z,545.00
2023-01-30T05:33:14.302Z,547.00
2023-01-30T05:34:14.381Z,550.00
2023-01-30T05:35:14.404Z,550.00
2023-01-30T05:36:14.476Z,540.00
2023-01-30T05:37:14.526Z,547.00
2023-01-30T05:38:14.562Z,546.00
2023-01-30T05:39:14.639Z,553.00
2023-01-30T05:40:14.686Z,554.00
2023-01-30T05:41:14.712Z,549.00
2023-01-30T05:42:14.784Z,550.00
2023-01-30T05:43:14.863Z,547.00
2023-01-30T05:44:14.919Z,552.00
2023-01-30T05:45:14.950Z,548.00
2023-01-30T05:46:15.079Z,544.00
2023-01-30T05:47:15.074Z,550.00
2023-01-30T05:48:15.130Z,545.00
2023-01-30T05:49:15.179Z,546.00
2023-01-30T05:50:15.225Z,546.00
2023-01-30T05:51:15.312Z,542.00
2023-01-30T05:52:15.341Z,547.00
2023-01-30T05:53:15.367Z,548.00
2023-01-30T05:54:15.407Z,550.00
2023-01-30T05:55:15.500Z,553.00
2023-01-30T05:56:15.590Z,548.00
2023-01-30T05:57:15.608Z,538.00
2023-01-30T05:58:15.673Z,539.00
2023-01-30T05:59:15.644Z,548.00
2023-01-30T06:00:15.715Z,553.00
2023-01-30T06:01:22.758Z,546.00
2023-01-30T06:02:15.744Z,546.00
2023-01-30T06:03:15.737Z,546.00
2023-01-30T06:04:15.723Z,544.00
2023-01-30T06:05:16.005Z,547.00
2023-01-30T06:06:15.729Z,543.00
2023-01-30T06:07:15.701Z,545.00
2023-01-30T06:08:15.733Z,542.00
2023-01-30T06:09:15.778Z,549.00
2023-01-30T06:10:15.648Z,548.00
2023-01-30T06:11:15.643Z,543.00
2023-01-30T06:12:15.656Z,538.00
2023-01-30T06:13:15.636Z,541.00
2023-01-30T06:14:15.627Z,537.00
2023-01-30T06:46:22.481Z,552.00
2023-01-30T07:04:15.443Z,599.00
2023-01-30T07:47:15.301Z,636.00
2023-01-30T11:02:22.063Z,690.00
2023-01-30T11:23:22.247Z,607.00
2023-01-30T11:24:21.836Z,529.00
2023-01-30T11:25:22.136Z,531.00
2023-01-30T11:26:21.855Z,529.00
2023-01-30T11:27:21.846Z,525.00
2023-01-30T11:28:21.858Z,527.00
2023-01-30T11:29:21.953Z,523.00
2023-01-30T11:30:22.329Z,526.00
2023-01-30T11:31:38.873Z,514.00
2023-01-30T11:32:23.110Z,506.00
2023-01-30T11:33:22.048Z,515.00
2023-01-30T11:34:22.055Z,525.00
2023-01-30T11:35:22.017Z,537.00
2023-01-30T11:36:22.150Z,497.00
2023-01-30T11:37:21.999Z,485.00
2023-01-30T11:38:21.979Z,503.00
2023-01-30T11:39:21.994Z,508.00
2023-01-30T11:40:22.545Z,837.00
2023-01-30T11:41:22.013Z,464.00
2023-01-30T11:42:22.000Z,532.00
2023-01-30T11:43:22.003Z,574.00
2023-01-30T11:44:22.025Z,583.00
2023-01-30T11:45:22.070Z,592.00
2023-01-30T11:46:22.111Z,608.00
2023-01-30T11:47:22.090Z,663.00
2023-01-30T11:48:33.578Z,751.00
2023-01-30T11:49:46.083Z,756.00
2023-01-30T11:50:25.813Z,761.00
2023-01-30T11:51:23.199Z,764.00
2023-01-30T11:52:22.172Z,803.00
2023-01-30T11:53:22.143Z,855.00
2023-01-30T11:54:22.193Z,916.00
2023-01-30T11:55:22.135Z,999.00
2023-01-30T11:56:22.138Z,1017.00
2023-01-30T11:57:22.106Z,961.00
2023-01-30T11:58:22.107Z,964.00
2023-01-30T11:59:22.115Z,964.00
2023-01-30T12:00:22.369Z,972.00
2023-01-30T12:01:22.061Z,987.00
2023-01-30T12:02:22.073Z,1006.00
2023-01-30T12:03:23.426Z,1009.00
2023-01-30T12:04:22.051Z,1013.00
2023-01-30T12:05:22.055Z,1011.00
2023-01-30T12:06:22.077Z,1033.00
2023-01-30T12:07:22.029Z,1005.00
2023-01-30T12:08:39.333Z,997.00
2023-01-30T12:09:23.015Z,998.00
2023-01-30T12:10:22.628Z,999.00
2023-01-30T12:11:22.019Z,1004.00
2023-01-30T12:12:22.002Z,1015.00
2023-01-30T12:13:22.001Z,1046.00
2023-01-30T12:14:22.027Z,1034.00
2023-01-30T12:15:21.952Z,1045.00
2023-01-30T12:16:22.090Z,1034.00
2023-01-30T12:17:21.983Z,1049.00
2023-01-30T12:18:21.923Z,1033.00
2023-01-30T12:19:21.946Z,1041.00
2023-01-30T12:20:21.956Z,1029.00
2023-01-30T12:21:22.143Z,1039.00
2023-01-30T12:22:21.921Z,1063.00
2023-01-30T12:23:21.897Z,1033.00
2023-01-30T12:24:21.924Z,1053.00
2023-01-30T12:25:21.927Z,1067.00
2023-01-30T12:26:21.911Z,1049.00
2023-01-30T12:27:21.892Z,1051.00
2023-01-30T12:28:21.899Z,1015.00
2023-01-30T12:29:21.922Z,986.00
2023-01-30T12:30:21.973Z,932.00
2023-01-30T12:31:22.157Z,965.00
2023-01-30T12:32:22.039Z,947.00
2023-01-30T12:33:22.135Z,933.00
2023-01-30T12:34:25.645Z,951.00
2023-01-30T12:35:23.177Z,953.00
2023-01-30T12:36:22.155Z,956.00
2023-01-30T12:39:22.114Z,982.00
2023-01-30T12:40:22.134Z,978.00
2023-01-30T12:49:22.136Z,1015.00
2023-01-30T12:50:22.203Z,1020.00
2023-01-30T12:51:22.274Z,1026.00
2023-01-30T12:52:22.294Z,1049.00
2023-01-30T12:53:22.385Z,1074.00
2023-01-30T12:54:22.457Z,1074.00
2023-01-30T12:55:22.550Z,2062.00
2023-01-30T12:56:22.587Z,3608.00
2023-01-30T12:57:22.627Z,3435.00
2023-01-30T12:58:22.708Z,4302.00
2023-01-30T12:59:22.734Z,4254.00
2023-01-30T13:00:22.763Z,4287.00
2023-01-30T13:01:23.210Z,4154.00
2023-01-30T13:02:24.804Z,3719.00
2023-01-30T13:03:22.856Z,3302.00
2023-01-30T13:04:22.859Z,3117.00
2023-01-30T13:05:22.840Z,3029.00
2023-01-30T13:06:22.879Z,2885.00
2023-01-30T13:07:22.809Z,2836.00
2023-01-30T13:08:22.797Z,2801.00
2023-01-30T13:09:22.769Z,2758.00
2023-01-30T13:10:23.192Z,2716.00
2023-01-30T13:11:22.762Z,2668.00
2023-01-30T13:12:22.795Z,2619.00
2023-01-30T13:13:22.822Z,2582.00
2023-01-30T13:14:22.755Z,2547.00
2023-01-30T13:15:22.788Z,2523.00
2023-01-30T13:16:22.779Z,2499.00
2023-01-30T13:17:22.749Z,2474.00
2023-01-30T13:18:22.755Z,2462.00
2023-01-30T13:19:23.143Z,2436.00
2023-01-30T13:20:22.874Z,2410.00
2023-01-30T13:21:22.940Z,2378.00
2023-01-30T13:22:23.026Z,2346.00
2023-01-30T13:23:23.045Z,2323.00
2023-01-30T13:24:23.153Z,2309.00
2023-01-30T13:26:23.245Z,2265.00
2023-01-30T13:27:23.335Z,2261.00
2023-01-30T13:28:25.016Z,2248.00
2023-01-30T13:29:23.511Z,2227.00
2023-01-30T13:30:23.550Z,2207.00
2023-01-30T13:31:23.715Z,2198.00
2023-01-30T13:32:23.719Z,2175.00
2023-01-30T13:33:23.721Z,2169.00
2023-01-30T13:34:23.758Z,2164.00
2023-01-30T13:35:23.889Z,2154.00
2023-01-30T13:36:23.885Z,2130.00
2023-01-30T13:37:23.960Z,2128.00
2023-01-30T13:38:24.014Z,2111.00
2023-01-30T13:39:24.047Z,2114.00
2023-01-30T13:40:24.123Z,2101.00
2023-01-30T13:41:24.191Z,2090.00
2023-01-30T13:42:24.243Z,2082.00
2023-01-30T13:43:25.175Z,2067.00
2023-01-30T13:44:24.369Z,2068.00
2023-01-30T13:45:24.413Z,2055.00
2023-01-30T13:46:24.514Z,2034.00
2023-01-30T13:47:24.522Z,2019.00
2023-01-30T13:48:24.557Z,2020.00
2023-01-30T13:49:24.651Z,2025.00
2023-01-30T13:50:24.666Z,2011.00
2023-01-30T13:51:24.772Z,2004.00
2023-01-30T13:52:24.921Z,1996.00
2023-01-30T13:53:24.903Z,1982.00
2023-01-30T13:54:24.909Z,1959.00
2023-01-30T13:55:25.023Z,1954.00
2023-01-30T13:56:40.720Z,1960.00
2023-01-30T13:57:26.013Z,1951.00
2023-01-30T13:58:25.063Z,1943.00
2023-01-30T13:59:25.009Z,1926.00
2023-01-30T14:00:25.111Z,1914.00
2023-01-30T14:01:24.989Z,1900.00
2023-01-30T14:02:25.038Z,1895.00
2023-01-30T14:03:24.946Z,1881.00
2023-01-30T14:04:24.997Z,1941.00
2023-01-30T14:05:31.818Z,1932.00
2023-01-30T14:06:25.997Z,1933.00
2023-01-30T14:07:25.029Z,1934.00
2023-01-30T14:08:25.005Z,1929.00
2023-01-30T14:09:24.994Z,1926.00
2023-01-30T14:10:25.002Z,1913.00
2023-01-30T14:11:24.984Z,1894.00
2023-01-30T14:12:25.076Z,1890.00
2023-01-30T14:13:24.971Z,1890.00
2023-01-30T14:14:25.047Z,1875.00
2023-01-30T14:15:25.081Z,1876.00
2023-01-30T14:16:25.236Z,1878.00
2023-01-30T14:17:25.241Z,1837.00
2023-01-30T14:18:25.260Z,1803.00
2023-01-30T14:19:25.278Z,1784.00
2023-01-30T14:20:25.308Z,1778.00
2023-01-30T14:21:25.356Z,1762.00
2023-01-30T14:22:25.345Z,1443.00
2023-01-30T14:23:25.380Z,1236.00
2023-01-30T14:24:25.367Z,1221.00
2023-01-30T14:25:25.399Z,1347.00
2023-01-30T14:26:25.401Z,1431.00
2023-01-30T14:27:25.355Z,1480.00
2023-01-30T14:28:25.359Z,1491.00
2023-01-30T14:29:25.428Z,1496.00
2023-01-30T14:30:25.468Z,1501.00
2023-01-30T14:31:25.614Z,1487.00
2023-01-30T14:32:25.758Z,1474.00
2023-01-30T14:33:25.630Z,1462.00
2023-01-30T14:34:25.660Z,1444.00
2023-01-30T14:35:25.709Z,1415.00
2023-01-30T14:36:25.750Z,1402.00
2023-01-30T14:37:25.773Z,1389.00
2023-01-30T14:38:25.790Z,1374.00
2023-01-30T14:39:25.785Z,1388.00
2023-01-30T14:40:25.821Z,1372.00
2023-01-30T14:41:25.835Z,1359.00
2023-01-30T14:42:25.928Z,1336.00
2023-01-30T14:43:25.904Z,1315.00
2023-01-30T14:44:25.948Z,1333.00
2023-01-30T14:45:25.970Z,1303.00
2023-01-30T14:46:26.067Z,1293.00
2023-01-30T14:47:33.932Z,1228.00
2023-01-30T14:48:26.998Z,1229.00
2023-01-30T14:49:25.966Z,1231.00
2023-01-30T14:50:25.987Z,1236.00
2023-01-30T14:51:25.972Z,1250.00
2023-01-30T14:52:25.956Z,1259.00
2023-01-30T14:53:25.922Z,1274.00
2023-01-30T14:54:33.268Z,1295.00
2023-01-30T14:55:26.949Z,1288.00
2023-01-30T14:56:25.913Z,1271.00
2023-01-30T14:57:25.923Z,1276.00
2023-01-30T14:58:25.935Z,1284.00
2023-01-30T14:59:25.932Z,1269.00
2023-01-30T15:00:25.896Z,1278.00
2023-01-30T15:01:25.999Z,1278.00
2023-01-30T15:02:25.978Z,1294.00
2023-01-30T15:03:25.863Z,1249.00
2023-01-30T15:04:25.889Z,900.00
2023-01-30T15:05:25.982Z,775.00
2023-01-30T15:06:25.856Z,840.00
2023-01-30T15:07:25.922Z,889.00
2023-01-30T15:08:25.960Z,1164.00
2023-01-30T15:09:26.046Z,1029.00
2023-01-30T15:10:26.089Z,828.00
2023-01-30T15:11:26.105Z,792.00
2023-01-30T15:12:26.235Z,919.00
2023-01-30T15:13:26.147Z,813.00
2023-01-30T15:14:26.148Z,804.00
2023-01-30T15:15:26.163Z,887.00
2023-01-30T15:16:26.225Z,945.00
2023-01-30T15:17:26.138Z,1162.00
2023-01-30T15:18:26.139Z,1047.00
2023-01-30T15:19:26.120Z,982.00
2023-01-30T15:20:28.066Z,723.00
2023-01-30T15:21:26.320Z,510.00
2023-01-30T15:22:26.425Z,522.00
2023-01-30T15:23:26.386Z,534.00
2023-01-30T15:24:26.397Z,553.00
2023-01-30T15:25:26.432Z,594.00
2023-01-30T15:26:26.510Z,592.00
2023-01-30T15:27:26.449Z,604.00
2023-01-30T15:28:26.460Z,618.00
2023-01-30T15:29:26.455Z,624.00
2023-01-30T15:30:26.528Z,614.00
2023-01-30T15:31:26.593Z,623.00
2023-01-30T15:32:26.751Z,606.00
2023-01-30T15:33:31.457Z,594.00
2023-01-30T15:34:27.622Z,595.00
2023-01-30T15:35:26.712Z,598.00
2023-01-30T15:36:26.611Z,605.00
2023-01-30T15:37:26.639Z,612.00
2023-01-30T15:40:26.575Z,631.00
2023-01-30T15:41:26.592Z,632.00
2023-01-30T15:42:26.573Z,627.00
2023-01-30T15:43:26.555Z,635.00
2023-01-30T15:44:26.573Z,629.00
2023-01-30T15:45:26.532Z,637.00
2023-01-30T15:46:26.736Z,613.00
2023-01-30T15:47:26.567Z,600.00
2023-01-30T15:48:26.546Z,619.00
2023-01-30T15:49:26.533Z,642.00
2023-01-30T15:50:26.529Z,650.00
2023-01-30T15:51:26.516Z,662.00
2023-01-30T15:52:26.478Z,662.00
2023-01-30T15:53:26.517Z,663.00
2023-01-30T15:54:26.521Z,671.00
2023-01-30T15:55:26.555Z,680.00
2023-01-30T15:56:26.619Z,680.00
2023-01-30T15:57:26.682Z,708.00
2023-01-30T15:58:26.719Z,720.00
2023-01-30T15:59:26.766Z,825.00
2023-01-30T16:00:26.792Z,497.00
2023-01-30T16:01:26.957Z,564.00
2023-01-30T16:02:26.879Z,607.00
2023-01-30T16:03:26.863Z,643.00
2023-01-30T16:04:26.891Z,654.00
2023-01-30T16:05:26.908Z,645.00
2023-01-30T16:06:26.921Z,646.00
2023-01-30T16:07:26.963Z,654.00
2023-01-30T16:08:27.031Z,663.00
2023-01-30T16:09:27.029Z,663.00
2023-01-30T16:10:27.100Z,665.00
2023-01-30T16:11:27.118Z,665.00
2023-01-30T16:12:27.155Z,664.00
2023-01-30T16:13:27.122Z,678.00
2023-01-30T16:14:27.130Z,666.00
2023-01-30T16:15:27.719Z,699.00
2023-01-30T16:16:27.207Z,688.00
2023-01-30T16:17:27.158Z,696.00
2023-01-30T16:18:27.219Z,673.00
2023-01-30T16:19:27.203Z,692.00
2023-01-30T16:20:27.263Z,695.00
2023-01-30T16:21:27.263Z,711.00
2023-01-30T16:22:27.379Z,700.00
2023-01-30T16:23:27.307Z,663.00
2023-01-30T16:24:27.314Z,662.00
2023-01-30T16:25:27.360Z,669.00
2023-01-30T16:26:27.421Z,665.00
2023-01-30T16:27:27.375Z,674.00
2023-01-30T16:28:27.759Z,672.00
2023-01-30T16:29:27.449Z,680.00
2023-01-30T16:30:27.594Z,677.00
2023-01-30T16:31:27.671Z,678.00
2023-01-30T16:32:27.519Z,697.00
2023-01-30T16:33:27.542Z,686.00
2023-01-30T16:34:27.547Z,700.00
2023-01-30T16:35:28.185Z,686.00
2023-01-30T16:36:27.615Z,681.00
2023-01-30T16:37:27.619Z,684.00
2023-01-30T16:38:27.649Z,685.00
2023-01-30T16:39:27.727Z,690.00
2023-01-30T16:40:27.731Z,694.00
2023-01-30T16:41:27.704Z,677.00
2023-01-30T16:42:27.745Z,671.00
2023-01-30T16:43:27.791Z,669.00
2023-01-30T16:44:27.805Z,660.00
2023-01-30T16:46:27.897Z,622.00
2023-01-30T16:47:27.884Z,647.00
2023-01-30T16:48:27.940Z,652.00
2023-01-30T16:49:27.943Z,672.00
2023-01-30T16:50:27.975Z,700.00
2023-01-30T16:51:27.999Z,742.00
2023-01-30T16:52:28.058Z,844.00
2023-01-30T16:53:28.037Z,826.00
2023-01-30T16:54:28.093Z,825.00
2023-01-30T16:55:28.122Z,831.00
2023-01-30T16:56:28.184Z,785.00
2023-01-30T16:57:28.202Z,764.00
2023-01-30T16:58:28.254Z,872.00
2023-01-30T16:59:28.288Z,874.00
2023-01-30T17:00:28.321Z,887.00
2023-01-30T17:01:28.495Z,889.00
2023-01-30T17:02:28.440Z,873.00
2023-01-30T17:03:28.484Z,877.00
2023-01-30T17:04:28.563Z,875.00
2023-01-30T17:05:28.547Z,878.00
2023-01-30T17:06:28.611Z,856.00
2023-01-30T17:07:28.645Z,855.00
2023-01-30T17:08:28.663Z,868.00
2023-01-30T17:09:28.731Z,858.00
2023-01-30T17:10:28.731Z,856.00
2023-01-30T17:12:28.833Z,832.00
2023-01-30T17:13:28.869Z,830.00
2023-01-30T17:14:28.868Z,832.00
2023-01-30T17:15:28.888Z,838.00
2023-01-30T17:16:28.939Z,837.00
2023-01-30T17:17:28.975Z,824.00
2023-01-30T17:18:29.012Z,832.00
2023-01-30T17:19:29.068Z,810.00
2023-01-30T17:20:29.039Z,818.00
2023-01-30T17:21:29.088Z,823.00
2023-01-30T17:22:29.153Z,810.00
2023-01-30T17:23:29.175Z,798.00
2023-01-30T17:24:29.178Z,820.00
2023-01-30T17:25:29.224Z,799.00
2023-01-30T17:26:29.297Z,794.00
2023-01-30T17:27:29.272Z,803.00
2023-01-30T17:28:29.337Z,782.00
2023-01-30T17:29:42.034Z,779.00
2023-01-30T17:31:29.441Z,782.00
2023-01-30T17:32:29.311Z,786.00
2023-01-30T17:33:29.320Z,781.00
2023-01-30T17:34:29.346Z,801.00
2023-01-30T17:36:29.284Z,781.00
2023-01-30T17:37:29.284Z,779.00
2023-01-30T17:38:29.273Z,776.00
2023-01-30T17:39:29.304Z,750.00
2023-01-30T17:40:29.254Z,763.00
2023-01-30T17:41:29.256Z,765.00
2023-01-30T17:42:29.296Z,759.00
2023-01-30T17:43:29.375Z,754.00
2023-01-30T17:44:29.414Z,757.00
2023-01-30T17:46:29.545Z,758.00